Time;durP1;ratioP1;P1;durP2;ratioP2;P2;SDS_P1;SDS_P2;PMS_P1;PMS_P2;Temp;Humidity;BMP_temperature;BMP_pressure;BME280_temperature;BME280_humidity;BME280_pressure;Samples;Min_cycle;Max_cycle;Signal;HPM_P1;HPM_P2
2023/07/19 00:00:10;;;;;;;21.50;20.30;;;;;;;;;;5051619;28;20553;-81
2023/07/19 00:02:38;;;;;;;21.10;19.93;;;;;;;;;;5051343;28;20473;-81
2023/07/19 00:05:05;;;;;;;20.93;19.70;;;;;;;;;;5052068;28;20505;-81
2023/07/19 00:07:32;;;;;;;21.83;20.73;;;;;;;;;;5051665;28;20435;-82
2023/07/19 00:10:01;;;;;;;20.73;19.63;;;;;;;;;;5051341;28;20442;-81
2023/07/19 00:12:28;;;;;;;22.00;20.90;;;;;;;;;;5051003;28;20458;-81
2023/07/19 00:14:55;;;;;;;22.10;20.90;;;;;;;;;;5051986;28;20421;-83
2023/07/19 00:17:22;;;;;;;20.83;19.70;;;;;;;;;;5051939;28;20425;-81
2023/07/19 00:19:50;;;;;;;22.17;20.80;;;;;;;;;;5051553;28;20479;-81
2023/07/19 00:22:18;;;;;;;21.73;20.60;;;;;;;;;;5051874;28;20458;-81
2023/07/19 00:24:45;;;;;;;22.20;20.83;;;;;;;;;;5052030;28;20429;-82
2023/07/19 00:27:13;;;;;;;22.63;21.40;;;;;;;;;;5052119;28;20421;-82
2023/07/19 00:29:40;;;;;;;22.77;21.33;;;;;;;;;;5051427;28;20444;-82
2023/07/19 00:32:07;;;;;;;21.33;20.13;;;;;;;;;;5050972;28;20461;-81
2023/07/19 00:34:34;;;;;;;21.83;20.63;;;;;;;;;;5051906;28;20490;-81
2023/07/19 00:37:02;;;;;;;22.27;20.97;;;;;;;;;;5052659;28;20450;-83
2023/07/19 00:39:29;;;;;;;21.63;20.43;;;;;;;;;;5052812;28;20459;-83
2023/07/19 00:41:57;;;;;;;21.83;20.63;;;;;;;;;;5053344;28;20454;-82
2023/07/19 00:44:26;;;;;;;22.33;21.13;;;;;;;;;;5053751;28;20485;-82
2023/07/19 00:46:53;;;;;;;22.50;21.20;;;;;;;;;;5052713;28;20487;-83
2023/07/19 00:49:20;;;;;;;22.60;21.30;;;;;;;;;;5055273;28;20446;-81
2023/07/19 00:51:48;;;;;;;21.53;20.33;;;;;;;;;;5055339;28;21033;-82
2023/07/19 00:54:15;;;;;;;22.37;21.07;;;;;;;;;;5056902;28;20457;-82
2023/07/19 00:56:43;;;;;;;21.57;20.47;;;;;;;;;;5056195;28;20433;-81
2023/07/19 00:59:12;;;;;;;22.40;21.00;;;;;;;;;;5055859;28;20864;-83
2023/07/19 01:01:43;;;;;;;21.40;20.20;;;;;;;;;;5056340;28;20441;-82
2023/07/19 01:04:10;;;;;;;22.40;21.10;;;;;;;;;;5057162;28;20449;-81
2023/07/19 01:06:37;;;;;;;22.03;20.77;;;;;;;;;;5056708;28;20426;-83
2023/07/19 01:09:05;;;;;;;22.47;21.00;;;;;;;;;;5055836;28;20429;-83
2023/07/19 01:11:32;;;;;;;22.17;21.07;;;;;;;;;;5056409;28;20462;-83
2023/07/19 01:13:59;;;;;;;21.40;20.20;;;;;;;;;;5060035;28;20806;-82
2023/07/19 01:16:26;;;;;;;21.80;20.50;;;;;;;;;;5061109;28;20418;-82
2023/07/19 01:18:55;;;;;;;22.63;21.00;;;;;;;;;;5060225;28;20456;-82
2023/07/19 01:21:22;;;;;;;22.20;21.00;;;;;;;;;;5056053;28;20544;-82
2023/07/19 01:23:51;;;;;;;23.27;21.60;;;;;;;;;;5056378;28;20414;-82
2023/07/19 01:26:18;;;;;;;23.20;21.73;;;;;;;;;;5056107;28;20978;-82
2023/07/19 01:28:46;;;;;;;21.67;20.53;;;;;;;;;;5055544;28;20436;-81
2023/07/19 01:31:15;;;;;;;22.33;21.13;;;;;;;;;;5055942;28;20475;-81
2023/07/19 01:36:46;;;;;;;22.00;20.70;;;;;;;;;;5053838;28;20369;-82
2023/07/19 01:39:14;;;;;;;23.20;21.60;;;;;;;;;;5055421;28;20421;-82
2023/07/19 01:41:41;;;;;;;21.20;20.10;;;;;;;;;;5055850;28;21039;-80
2023/07/19 01:44:08;;;;;;;22.20;21.00;;;;;;;;;;5055540;28;20438;-81
2023/07/19 01:46:38;;;;;;;23.23;21.20;;;;;;;;;;5056256;28;20450;-81
2023/07/19 01:49:05;;;;;;;22.40;21.03;;;;;;;;;;5054521;28;20932;-81
2023/07/19 01:51:32;;;;;;;22.20;21.00;;;;;;;;;;5055040;28;20764;-82
2023/07/19 01:53:59;;;;;;;21.57;20.37;;;;;;;;;;5054535;28;20489;-81
2023/07/19 01:56:28;;;;;;;21.30;20.07;;;;;;;;;;5055397;28;20461;-81
2023/07/19 01:58:55;;;;;;;22.63;21.33;;;;;;;;;;5054367;28;20426;-83
2023/07/19 02:01:22;;;;;;;21.30;20.20;;;;;;;;;;5055127;28;20532;-81
2023/07/19 02:03:49;;;;;;;21.03;19.83;;;;;;;;;;5055260;28;20471;-82
2023/07/19 02:06:16;;;;;;;21.20;20.00;;;;;;;;;;5055578;28;20485;-81
2023/07/19 02:08:43;;;;;;;22.20;21.00;;;;;;;;;;5054158;28;20501;-81
2023/07/19 02:11:10;;;;;;;21.33;19.83;;;;;;;;;;5053792;28;20508;-81
2023/07/19 02:13:39;;;;;;;21.87;20.47;;;;;;;;;;5055215;28;20509;-81
2023/07/19 02:16:06;;;;;;;21.83;20.17;;;;;;;;;;5055245;28;20429;-81
2023/07/19 02:18:33;;;;;;;21.50;20.30;;;;;;;;;;5054808;28;20507;-82
2023/07/19 02:21:00;;;;;;;21.43;20.23;;;;;;;;;;5055409;28;20446;-81
2023/07/19 02:23:27;;;;;;;22.17;20.77;;;;;;;;;;5055144;28;20476;-82
2023/07/19 02:25:54;;;;;;;22.00;20.80;;;;;;;;;;5055025;28;21270;-82
2023/07/19 02:28:21;;;;;;;23.03;21.63;;;;;;;;;;5055436;28;20437;-83
2023/07/19 02:30:49;;;;;;;21.50;20.30;;;;;;;;;;5054307;28;20461;-81
2023/07/19 02:33:16;;;;;;;21.30;20.10;;;;;;;;;;5054341;28;20923;-83
2023/07/19 02:35:44;;;;;;;22.00;20.73;;;;;;;;;;5055371;28;20401;-82
2023/07/19 02:38:11;;;;;;;21.50;20.10;;;;;;;;;;5055318;28;20453;-81
2023/07/19 02:40:39;;;;;;;21.50;20.30;;;;;;;;;;5055088;28;20477;-80
2023/07/19 02:43:06;;;;;;;22.20;20.80;;;;;;;;;;5055321;28;20441;-82
2023/07/19 02:45:34;;;;;;;22.60;21.00;;;;;;;;;;5055075;28;20433;-82
2023/07/19 02:48:03;;;;;;;21.53;20.23;;;;;;;;;;5055188;28;20482;-83
2023/07/19 02:50:30;;;;;;;22.83;21.53;;;;;;;;;;5055109;28;20462;-82
2023/07/19 02:52:58;;;;;;;21.60;20.40;;;;;;;;;;5055188;28;20447;-83
2023/07/19 02:55:25;;;;;;;21.73;20.23;;;;;;;;;;5054653;28;20544;-82
2023/07/19 02:57:52;;;;;;;20.57;19.40;;;;;;;;;;5054375;28;20417;-82
2023/07/19 03:00:19;;;;;;;22.87;21.43;;;;;;;;;;5053323;28;20933;-83
2023/07/19 03:02:53;;;;;;;22.37;20.70;;;;;;;;;;5054259;28;20480;-81
2023/07/19 03:05:22;;;;;;;22.80;21.30;;;;;;;;;;5056040;28;20457;-81
2023/07/19 03:07:49;;;;;;;22.10;20.90;;;;;;;;;;5055416;28;20967;-81
2023/07/19 03:10:16;;;;;;;22.80;21.30;;;;;;;;;;5055388;28;20451;-83
2023/07/19 03:12:43;;;;;;;21.97;20.70;;;;;;;;;;5054960;28;20539;-82
2023/07/19 03:15:11;;;;;;;21.93;20.63;;;;;;;;;;5055653;28;20453;-82
2023/07/19 03:17:39;;;;;;;22.13;20.83;;;;;;;;;;5055787;28;20445;-82
2023/07/19 03:20:07;;;;;;;22.37;21.00;;;;;;;;;;5053412;28;20549;-82
2023/07/19 03:22:35;;;;;;;22.67;21.27;;;;;;;;;;5053766;28;20462;-81
2023/07/19 03:25:02;;;;;;;21.80;20.50;;;;;;;;;;5053092;28;20482;-82
2023/07/19 03:27:29;;;;;;;23.23;21.90;;;;;;;;;;5053470;28;20458;-82
2023/07/19 03:29:56;;;;;;;21.53;20.27;;;;;;;;;;5052477;28;20425;-82
2023/07/19 03:32:23;;;;;;;22.20;20.90;;;;;;;;;;5051523;28;20487;-82
2023/07/19 03:34:50;;;;;;;22.30;21.00;;;;;;;;;;5051678;28;20476;-81
2023/07/19 03:37:17;;;;;;;23.73;22.10;;;;;;;;;;5052985;28;20437;-82
2023/07/19 03:39:46;;;;;;;22.00;20.80;;;;;;;;;;5052088;28;20937;-82
2023/07/19 03:42:13;;;;;;;21.90;20.70;;;;;;;;;;5051351;28;20453;-81
2023/07/19 03:44:40;;;;;;;22.43;21.10;;;;;;;;;;5052449;28;20852;-82
2023/07/19 03:47:07;;;;;;;23.67;22.20;;;;;;;;;;5052416;28;20454;-81
2023/07/19 03:49:34;;;;;;;22.93;21.10;;;;;;;;;;5052099;28;20424;-82
2023/07/19 03:52:01;;;;;;;22.90;21.60;;;;;;;;;;5052380;28;20441;-82
2023/07/19 03:54:28;;;;;;;22.80;21.30;;;;;;;;;;5053682;28;20453;-82
2023/07/19 03:56:57;;;;;;;22.20;20.90;;;;;;;;;;5053632;28;20428;-81
2023/07/19 03:59:24;;;;;;;21.30;20.10;;;;;;;;;;5051638;28;20462;-81
2023/07/19 04:01:51;;;;;;;23.20;21.53;;;;;;;;;;5051331;28;20501;-81
2023/07/19 04:04:18;;;;;;;21.63;20.33;;;;;;;;;;5052337;28;20409;-81
2023/07/19 04:06:45;;;;;;;23.10;21.57;;;;;;;;;;5052379;28;20432;-81
2023/07/19 04:09:12;;;;;;;22.00;20.60;;;;;;;;;;5051929;28;20951;-81
2023/07/19 04:11:39;;;;;;;21.27;20.07;;;;;;;;;;5051899;28;20440;-81
2023/07/19 04:14:08;;;;;;;22.70;21.20;;;;;;;;;;5052016;28;20545;-81
2023/07/19 04:16:35;;;;;;;22.60;21.20;;;;;;;;;;5052209;28;20433;-81
2023/07/19 04:19:02;;;;;;;23.87;22.17;;;;;;;;;;5051512;28;20432;-81
2023/07/19 04:21:29;;;;;;;22.20;20.90;;;;;;;;;;5051282;28;20465;-82
2023/07/19 04:23:56;;;;;;;22.30;20.70;;;;;;;;;;5056089;28;20421;-82
2023/07/19 04:26:23;;;;;;;22.63;21.23;;;;;;;;;;5055560;28;20429;-83
2023/07/19 04:28:50;;;;;;;22.87;21.37;;;;;;;;;;5054914;28;20424;-81
2023/07/19 04:31:19;;;;;;;23.27;21.63;;;;;;;;;;5055752;28;20891;-81
2023/07/19 04:33:46;;;;;;;23.00;21.50;;;;;;;;;;5055795;28;20424;-81
2023/07/19 04:36:13;;;;;;;24.00;22.47;;;;;;;;;;5055551;28;20477;-81
2023/07/19 04:38:41;;;;;;;23.13;21.73;;;;;;;;;;5055762;28;20791;-81
2023/07/19 04:41:08;;;;;;;23.80;22.30;;;;;;;;;;5054845;28;20514;-80
2023/07/19 04:43:35;;;;;;;21.67;20.27;;;;;;;;;;5055156;28;20442;-81
2023/07/19 04:46:03;;;;;;;22.20;20.80;;;;;;;;;;5055620;28;20512;-81
2023/07/19 04:48:31;;;;;;;23.00;21.60;;;;;;;;;;5055242;28;20458;-81
2023/07/19 04:50:59;;;;;;;23.27;21.77;;;;;;;;;;5055022;28;20437;-81
2023/07/19 04:53:26;;;;;;;23.07;21.47;;;;;;;;;;5054597;28;21302;-80
2023/07/19 04:55:54;;;;;;;23.10;21.20;;;;;;;;;;5060403;28;20468;-81
2023/07/19 04:58:21;;;;;;;22.50;21.20;;;;;;;;;;5056181;28;20425;-81
2023/07/19 05:00:48;;;;;;;21.40;20.20;;;;;;;;;;5054785;28;20471;-81
2023/07/19 05:03:15;;;;;;;22.83;21.27;;;;;;;;;;5055114;28;20413;-81
2023/07/19 05:05:43;;;;;;;22.93;21.33;;;;;;;;;;5055015;28;20458;-82
2023/07/19 05:08:10;;;;;;;21.80;20.57;;;;;;;;;;5055025;28;20447;-82
2023/07/19 05:10:37;;;;;;;24.00;22.50;;;;;;;;;;5053773;28;20449;-82
2023/07/19 05:13:04;;;;;;;22.00;20.70;;;;;;;;;;5054651;28;20413;-81
2023/07/19 05:15:32;;;;;;;22.67;21.20;;;;;;;;;;5054787;28;20485;-81
2023/07/19 05:18:00;;;;;;;23.30;21.60;;;;;;;;;;5055110;28;20433;-81
2023/07/19 05:20:27;;;;;;;23.80;22.10;;;;;;;;;;5054166;28;20948;-81
2023/07/19 05:22:56;;;;;;;22.77;21.07;;;;;;;;;;5054708;28;20445;-81
2023/07/19 05:25:23;;;;;;;23.10;21.60;;;;;;;;;;5054875;28;20441;-83
2023/07/19 05:27:50;;;;;;;23.57;21.70;;;;;;;;;;5054690;28;20442;-81
2023/07/19 05:30:17;;;;;;;23.70;21.60;;;;;;;;;;5052202;28;20467;-80
2023/07/19 05:32:44;;;;;;;21.60;20.33;;;;;;;;;;5053303;28;20430;-79
2023/07/19 05:35:11;;;;;;;21.30;19.90;;;;;;;;;;5054134;28;20465;-83
2023/07/19 05:37:39;;;;;;;25.20;22.80;;;;;;;;;;5055393;28;20429;-79
2023/07/19 05:40:09;;;;;;;25.43;23.03;;;;;;;;;;5054192;28;20461;-82
2023/07/19 05:42:36;;;;;;;23.60;21.67;;;;;;;;;;5054129;28;20491;-83
2023/07/19 05:45:04;;;;;;;25.40;23.13;;;;;;;;;;5054672;28;21195;-79
2023/07/19 05:47:32;;;;;;;24.57;22.33;;;;;;;;;;5053830;28;20414;-79
2023/07/19 05:49:59;;;;;;;24.73;22.40;;;;;;;;;;5054173;28;20458;-83
2023/07/19 05:52:27;;;;;;;70.93;35.90;;;;;;;;;;5051987;28;20472;-78
2023/07/19 05:54:54;;;;;;;69.10;34.87;;;;;;;;;;5054227;28;20468;-80
2023/07/19 05:57:22;;;;;;;43.47;27.43;;;;;;;;;;5054861;28;20426;-81
2023/07/19 05:59:49;;;;;;;27.43;24.53;;;;;;;;;;5057410;28;20495;-85
2023/07/19 06:02:17;;;;;;;24.97;22.60;;;;;;;;;;5043520;28;20987;-88
2023/07/19 06:04:44;;;;;;;24.17;22.30;;;;;;;;;;5033887;28;20835;-86
2023/07/19 06:07:11;;;;;;;23.43;21.63;;;;;;;;;;5034815;28;20415;-85
2023/07/19 06:09:38;;;;;;;22.00;20.50;;;;;;;;;;5034494;28;20434;-86
2023/07/19 06:12:05;;;;;;;23.37;21.80;;;;;;;;;;5034263;28;20506;-85
2023/07/19 06:14:34;;;;;;;22.30;20.60;;;;;;;;;;5035179;28;20450;-92
2023/07/19 06:17:01;;;;;;;23.07;21.57;;;;;;;;;;5035653;28;20494;-92
2023/07/19 06:19:28;;;;;;;24.20;22.40;;;;;;;;;;5035456;28;20497;-92
2023/07/19 06:21:55;;;;;;;22.93;21.27;;;;;;;;;;5035039;28;20450;-92
2023/07/19 06:24:23;;;;;;;24.37;22.37;;;;;;;;;;5035334;28;20435;-92
2023/07/19 06:26:50;;;;;;;23.10;21.50;;;;;;;;;;5035859;28;20422;-82
2023/07/19 06:29:20;;;;;;;23.90;22.20;;;;;;;;;;5035709;28;20438;-91
2023/07/19 06:31:50;;;;;;;23.73;22.03;;;;;;;;;;5034401;28;20478;-91
2023/07/19 06:34:17;;;;;;;25.40;23.60;;;;;;;;;;5034938;28;20437;-91
2023/07/19 06:36:44;;;;;;;23.43;21.67;;;;;;;;;;5034869;28;20471;-91
2023/07/19 06:39:14;;;;;;;24.70;22.87;;;;;;;;;;5034573;28;20430;-91
2023/07/19 06:41:41;;;;;;;23.57;22.03;;;;;;;;;;5035025;28;20467;-92
2023/07/19 06:44:08;;;;;;;23.33;21.67;;;;;;;;;;5034558;28;20442;-92
2023/07/19 06:46:35;;;;;;;23.07;21.47;;;;;;;;;;5033860;28;20443;-92
2023/07/19 06:49:04;;;;;;;23.67;21.97;;;;;;;;;;5034405;28;20444;-92
2023/07/19 06:51:31;;;;;;;25.70;23.90;;;;;;;;;;5035060;28;20450;-91
2023/07/19 06:53:58;;;;;;;25.37;23.60;;;;;;;;;;5033931;28;21177;-92
2023/07/19 06:56:25;;;;;;;26.37;23.70;;;;;;;;;;5034887;28;20458;-92
2023/07/19 06:58:52;;;;;;;25.27;23.40;;;;;;;;;;5034128;28;20438;-92
2023/07/19 07:01:19;;;;;;;24.97;23.17;;;;;;;;;;5034288;28;20503;-92
2023/07/19 07:03:46;;;;;;;23.97;22.27;;;;;;;;;;5034510;28;20417;-91
2023/07/19 07:06:14;;;;;;;24.07;22.10;;;;;;;;;;5034234;28;20419;-91
2023/07/19 07:08:42;;;;;;;24.47;22.70;;;;;;;;;;5033758;28;20952;-93
2023/07/19 07:11:09;;;;;;;25.33;23.30;;;;;;;;;;5034895;28;20477;-91
2023/07/19 07:13:36;;;;;;;23.67;21.97;;;;;;;;;;5034170;28;20436;-90
2023/07/19 07:16:03;;;;;;;24.67;23.03;;;;;;;;;;5034457;28;20587;-91
2023/07/19 07:18:30;;;;;;;24.83;23.13;;;;;;;;;;5034506;28;20498;-92
2023/07/19 07:20:57;;;;;;;26.73;24.63;;;;;;;;;;5034640;28;20435;-91
2023/07/19 07:23:26;;;;;;;25.53;23.43;;;;;;;;;;5034696;28;20431;-92
2023/07/19 07:25:53;;;;;;;24.50;22.60;;;;;;;;;;5034553;28;20447;-91
2023/07/19 07:28:20;;;;;;;24.77;22.90;;;;;;;;;;5033967;28;20901;-91
2023/07/19 07:30:47;;;;;;;25.37;23.47;;;;;;;;;;5033828;28;20464;-91
2023/07/19 07:33:14;;;;;;;26.10;23.83;;;;;;;;;;5034198;28;20455;-90
2023/07/19 07:35:41;;;;;;;26.00;23.90;;;;;;;;;;5033998;28;20465;-91
2023/07/19 07:38:09;;;;;;;25.23;23.47;;;;;;;;;;5034254;28;20455;-91
2023/07/19 07:40:38;;;;;;;24.57;22.87;;;;;;;;;;5035929;28;20478;-91
2023/07/19 07:43:05;;;;;;;25.10;23.10;;;;;;;;;;5036358;28;20494;-91
2023/07/19 07:45:32;;;;;;;25.53;23.43;;;;;;;;;;5034247;28;20426;-91
2023/07/19 07:47:59;;;;;;;25.60;23.73;;;;;;;;;;5034241;28;20929;-86
2023/07/19 07:50:26;;;;;;;25.20;23.23;;;;;;;;;;5031915;28;20422;-87
2023/07/19 07:52:53;;;;;;;24.37;22.33;;;;;;;;;;5033532;28;20918;-92
2023/07/19 07:55:20;;;;;;;24.73;23.10;;;;;;;;;;5034015;28;20454;-90
2023/07/19 07:57:49;;;;;;;26.10;24.00;;;;;;;;;;5035430;28;20450;-90
2023/07/19 08:00:19;;;;;;;25.13;22.87;;;;;;;;;;5037188;28;20492;-90
2023/07/19 08:02:46;;;;;;;24.90;22.53;;;;;;;;;;5037598;28;20434;-90
2023/07/19 08:05:13;;;;;;;24.57;22.30;;;;;;;;;;5037905;28;20447;-91
2023/07/19 08:07:40;;;;;;;24.80;23.10;;;;;;;;;;5037713;28;20913;-90
2023/07/19 08:10:08;;;;;;;24.53;22.70;;;;;;;;;;5037316;28;20439;-90
2023/07/19 08:12:35;;;;;;;24.83;23.13;;;;;;;;;;5036809;28;20496;-90
2023/07/19 08:15:03;;;;;;;25.53;23.60;;;;;;;;;;5037311;28;20421;-86
2023/07/19 08:17:30;;;;;;;24.40;22.60;;;;;;;;;;5052594;28;20898;-89
2023/07/19 08:19:58;;;;;;;24.63;22.83;;;;;;;;;;5057913;28;20454;-84
2023/07/19 08:22:26;;;;;;;23.63;22.03;;;;;;;;;;5057399;28;20462;-84
2023/07/19 08:24:55;;;;;;;25.33;23.20;;;;;;;;;;5056749;28;20465;-85
2023/07/19 08:27:22;;;;;;;25.50;23.67;;;;;;;;;;5057807;28;20475;-86
2023/07/19 08:29:49;;;;;;;25.20;23.50;;;;;;;;;;5056922;28;20417;-87
2023/07/19 08:32:18;;;;;;;24.43;22.63;;;;;;;;;;5056892;28;20467;-87
2023/07/19 08:34:45;;;;;;;25.03;23.07;;;;;;;;;;5057554;28;20449;-90
2023/07/19 08:37:12;;;;;;;25.43;23.60;;;;;;;;;;5056837;28;20474;-90
2023/07/19 08:39:39;;;;;;;25.10;23.00;;;;;;;;;;5056909;28;20452;-91
2023/07/19 08:42:07;;;;;;;26.40;24.30;;;;;;;;;;5057148;28;20477;-90
2023/07/19 08:44:34;;;;;;;26.97;25.07;;;;;;;;;;5056867;28;20410;-91
2023/07/19 08:47:03;;;;;;;25.27;23.57;;;;;;;;;;5057084;28;20433;-90
2023/07/19 08:49:31;;;;;;;25.20;23.40;;;;;;;;;;5056701;28;20454;-90
2023/07/19 08:51:59;;;;;;;26.90;25.00;;;;;;;;;;5056417;28;20459;-90
2023/07/19 08:54:26;;;;;;;25.33;23.43;;;;;;;;;;5056189;28;20414;-90
2023/07/19 08:56:53;;;;;;;24.13;22.63;;;;;;;;;;5056650;28;20501;-90
2023/07/19 08:59:20;;;;;;;26.27;24.20;;;;;;;;;;5056028;28;20430;-89
2023/07/19 09:01:47;;;;;;;26.40;24.50;;;;;;;;;;5056529;28;20456;-90
2023/07/19 09:04:15;;;;;;;26.27;24.57;;;;;;;;;;5055913;28;20409;-90
2023/07/19 09:06:43;;;;;;;26.53;24.60;;;;;;;;;;5056232;28;20455;-90
2023/07/19 09:09:11;;;;;;;24.73;23.07;;;;;;;;;;5054704;28;20414;-90
2023/07/19 09:11:38;;;;;;;26.43;24.20;;;;;;;;;;5056836;28;20463;-90
2023/07/19 09:14:05;;;;;;;25.23;23.63;;;;;;;;;;5067004;28;20414;-90
2023/07/19 09:16:32;;;;;;;26.00;24.20;;;;;;;;;;5056162;28;20456;-90
2023/07/19 09:19:00;;;;;;;27.57;25.47;;;;;;;;;;5055826;28;20414;-90
2023/07/19 09:21:31;;;;;;;26.07;24.37;;;;;;;;;;5056122;28;20437;-90
2023/07/19 09:24:00;;;;;;;25.87;23.63;;;;;;;;;;5056531;28;20452;-90
2023/07/19 09:26:27;;;;;;;25.07;23.47;;;;;;;;;;5055885;28;20446;-90
2023/07/19 09:28:54;;;;;;;25.00;23.30;;;;;;;;;;5055949;28;20940;-90
2023/07/19 09:31:22;;;;;;;25.60;23.60;;;;;;;;;;5056130;28;20460;-90
2023/07/19 09:33:49;;;;;;;25.00;23.17;;;;;;;;;;5056339;28;20435;-89
2023/07/19 09:36:18;;;;;;;25.23;23.40;;;;;;;;;;5055782;28;21207;-90
2023/07/19 09:38:46;;;;;;;24.17;22.47;;;;;;;;;;5054934;28;20938;-90
2023/07/19 09:41:14;;;;;;;25.27;23.33;;;;;;;;;;5055143;28;20453;-91
2023/07/19 09:43:42;;;;;;;24.47;22.87;;;;;;;;;;5055332;28;20522;-90
2023/07/19 09:46:10;;;;;;;24.00;22.37;;;;;;;;;;5055679;28;20474;-90
2023/07/19 09:48:37;;;;;;;24.97;23.07;;;;;;;;;;5055414;28;20459;-90
2023/07/19 09:51:05;;;;;;;24.73;23.10;;;;;;;;;;5055926;28;20470;-90
2023/07/19 09:53:34;;;;;;;23.83;22.13;;;;;;;;;;5055881;28;20821;-90
2023/07/19 09:56:01;;;;;;;25.23;23.57;;;;;;;;;;5055524;28;20453;-90
2023/07/19 09:58:30;;;;;;;25.73;23.83;;;;;;;;;;5054797;28;20437;-90
2023/07/19 10:00:59;;;;;;;23.97;22.37;;;;;;;;;;5055154;28;20449;-90
2023/07/19 10:03:26;;;;;;;23.83;22.20;;;;;;;;;;5055379;28;20416;-90
2023/07/19 10:05:57;;;;;;;24.93;23.10;;;;;;;;;;5056003;28;20421;-90
2023/07/19 10:08:24;;;;;;;23.90;21.80;;;;;;;;;;5054676;28;20932;-90
2023/07/19 10:10:57;;;;;;;23.33;21.83;;;;;;;;;;5056584;28;20471;-90
2023/07/19 10:13:31;;;;;;;23.60;22.10;;;;;;;;;;5056261;28;20425;-90
2023/07/19 10:15:58;;;;;;;23.10;21.47;;;;;;;;;;5056391;28;20537;-89
2023/07/19 10:18:27;;;;;;;23.43;21.60;;;;;;;;;;5055930;28;20454;-91
2023/07/19 10:21:01;;;;;;;22.43;21.03;;;;;;;;;;5055443;28;20484;-90
2023/07/19 10:23:30;;;;;;;24.83;23.00;;;;;;;;;;5055688;28;20430;-89
2023/07/19 10:25:58;;;;;;;23.30;21.70;;;;;;;;;;5055606;28;20461;-90
2023/07/19 10:28:29;;;;;;;23.57;22.00;;;;;;;;;;5055657;28;20477;-90
2023/07/19 10:30:58;;;;;;;23.10;21.10;;;;;;;;;;5055400;28;20565;-90
2023/07/19 10:33:26;;;;;;;22.70;21.10;;;;;;;;;;5055663;28;20441;-90
2023/07/19 10:35:54;;;;;;;23.63;22.13;;;;;;;;;;5056067;28;20493;-90
2023/07/19 10:38:22;;;;;;;22.20;20.90;;;;;;;;;;5064252;28;20433;-89
2023/07/19 10:40:54;;;;;;;23.13;21.50;;;;;;;;;;5058131;28;20524;-89
2023/07/19 10:43:21;;;;;;;22.80;21.00;;;;;;;;;;5056249;28;20813;-90
2023/07/19 10:45:48;;;;;;;22.70;21.37;;;;;;;;;;5055233;28;21015;-89
2023/07/19 10:48:17;;;;;;;22.37;20.77;;;;;;;;;;5055562;28;21073;-89
2023/07/19 10:50:47;;;;;;;23.10;21.50;;;;;;;;;;5055189;28;20447;-90
2023/07/19 10:53:14;;;;;;;22.23;20.93;;;;;;;;;;5056236;28;20443;-89
2023/07/19 10:55:42;;;;;;;22.93;21.53;;;;;;;;;;5055451;28;20451;-90
2023/07/19 10:58:08;;;;;;;22.63;21.00;;;;;;;;;;5055384;28;20409;-89
2023/07/19 11:00:37;;;;;;;22.70;21.30;;;;;;;;;;5055172;28;20966;-89
2023/07/19 11:03:05;;;;;;;23.23;21.27;;;;;;;;;;5054406;28;20457;-89
2023/07/19 11:05:33;;;;;;;22.70;21.20;;;;;;;;;;5055271;28;20512;-88
2023/07/19 11:08:00;;;;;;;22.27;20.97;;;;;;;;;;5055007;28;20439;-90
2023/07/19 11:10:30;;;;;;;22.57;20.73;;;;;;;;;;5054575;28;20455;-89
2023/07/19 11:13:15;;;;;;;22.50;21.00;;;;;;;;;;5055550;28;20470;-89
2023/07/19 11:15:43;;;;;;;22.90;21.43;;;;;;;;;;5055245;28;20447;-89
2023/07/19 11:18:10;;;;;;;22.47;20.97;;;;;;;;;;5055886;28;20462;-93
2023/07/19 11:20:39;;;;;;;23.20;21.50;;;;;;;;;;5062902;28;20472;-95
2023/07/19 11:23:07;;;;;;;22.33;21.03;;;;;;;;;;5065715;28;20481;-94
2023/07/19 11:25:35;;;;;;;22.60;20.90;;;;;;;;;;5063936;28;20455;-94
2023/07/19 11:28:02;;;;;;;22.10;20.50;;;;;;;;;;5063603;28;20421;-94
2023/07/19 11:30:41;;;;;;;22.93;21.27;;;;;;;;;;5063036;28;20477;-94
2023/07/19 11:33:09;;;;;;;22.93;21.17;;;;;;;;;;5061185;28;20437;-93
2023/07/19 11:35:37;;;;;;;22.40;20.93;;;;;;;;;;5056604;28;20467;-90
2023/07/19 11:38:05;;;;;;;23.03;21.30;;;;;;;;;;5055449;28;20506;-90
2023/07/19 11:40:33;;;;;;;22.67;21.33;;;;;;;;;;5054933;28;20467;-90
2023/07/19 11:43:15;;;;;;;22.80;21.30;;;;;;;;;;5055314;28;20432;-90
2023/07/19 11:45:43;;;;;;;22.00;20.60;;;;;;;;;;5055137;28;20435;-89
2023/07/19 11:48:10;;;;;;;22.77;21.37;;;;;;;;;;5055251;28;21002;-90
2023/07/19 11:50:38;;;;;;;22.50;21.10;;;;;;;;;;5053854;28;20849;-91
2023/07/19 11:53:06;;;;;;;22.87;21.53;;;;;;;;;;5054853;28;20855;-91
2023/07/19 11:55:34;;;;;;;22.77;21.33;;;;;;;;;;5054632;28;20420;-91
2023/07/19 11:58:03;;;;;;;24.53;22.83;;;;;;;;;;5053970;28;20540;-90
2023/07/19 12:00:31;;;;;;;22.00;20.50;;;;;;;;;;5053416;28;20443;-90
2023/07/19 12:02:58;;;;;;;23.77;21.97;;;;;;;;;;5053922;28;20435;-90
2023/07/19 12:05:26;;;;;;;22.80;21.40;;;;;;;;;;5053854;28;20899;-90
2023/07/19 12:07:54;;;;;;;23.80;22.20;;;;;;;;;;5054166;28;20459;-89
2023/07/19 12:10:23;;;;;;;22.77;20.93;;;;;;;;;;5054094;28;20443;-89
2023/07/19 12:12:51;;;;;;;22.40;21.00;;;;;;;;;;5054038;28;21012;-88
2023/07/19 12:15:18;;;;;;;22.80;21.20;;;;;;;;;;5053020;28;20465;-85
2023/07/19 12:17:46;;;;;;;23.53;22.03;;;;;;;;;;5053231;28;20464;-86
2023/07/19 12:20:13;;;;;;;23.47;22.07;;;;;;;;;;5052259;28;20410;-86
2023/07/19 12:22:41;;;;;;;23.40;22.00;;;;;;;;;;5053115;28;20449;-86
2023/07/19 12:25:09;;;;;;;24.20;22.57;;;;;;;;;;5060097;28;20465;-86
2023/07/19 12:27:37;;;;;;;23.80;22.10;;;;;;;;;;5052894;28;20927;-86
2023/07/19 12:30:05;;;;;;;23.97;22.33;;;;;;;;;;5051781;28;20470;-85
2023/07/19 12:32:32;;;;;;;24.57;22.77;;;;;;;;;;5052685;28;20464;-85
2023/07/19 12:34:59;;;;;;;23.70;22.00;;;;;;;;;;5052947;28;20856;-86
2023/07/19 12:37:27;;;;;;;22.00;20.70;;;;;;;;;;5052557;28;20453;-86
2023/07/19 12:39:54;;;;;;;23.53;21.73;;;;;;;;;;5052298;28;20841;-85
2023/07/19 12:42:21;;;;;;;22.47;20.80;;;;;;;;;;5052727;28;20478;-86
2023/07/19 12:44:50;;;;;;;23.87;22.17;;;;;;;;;;5056511;28;20425;-86
2023/07/19 12:47:18;;;;;;;23.70;22.20;;;;;;;;;;5056578;28;20506;-86
2023/07/19 12:49:45;;;;;;;22.97;21.47;;;;;;;;;;5063354;28;20440;-91
2023/07/19 12:52:13;;;;;;;23.87;22.17;;;;;;;;;;5079360;28;20898;-92
2023/07/19 12:54:40;;;;;;;23.40;21.67;;;;;;;;;;5079227;28;20442;-91
2023/07/19 12:57:08;;;;;;;23.30;21.90;;;;;;;;;;5077191;28;20945;-89
2023/07/19 12:59:35;;;;;;;23.70;22.20;;;;;;;;;;5076324;28;20454;-89
2023/07/19 13:02:04;;;;;;;22.30;20.77;;;;;;;;;;5076672;28;20523;-88
2023/07/19 13:04:32;;;;;;;22.90;21.30;;;;;;;;;;5076668;28;20442;-88
2023/07/19 13:06:59;;;;;;;22.30;20.90;;;;;;;;;;5076648;28;20423;-88
2023/07/19 13:09:27;;;;;;;23.57;22.00;;;;;;;;;;5055368;28;20507;-88
2023/07/19 13:11:54;;;;;;;22.57;21.10;;;;;;;;;;5036827;28;20445;-88
2023/07/19 13:14:21;;;;;;;23.20;21.60;;;;;;;;;;5037210;28;20503;-90
2023/07/19 13:16:48;;;;;;;23.27;21.57;;;;;;;;;;5038887;28;20462;-88
2023/07/19 13:19:17;;;;;;;23.37;21.87;;;;;;;;;;5056527;28;20465;-88
2023/07/19 13:21:45;;;;;;;23.63;22.00;;;;;;;;;;5056981;28;20455;-88
2023/07/19 13:24:12;;;;;;;23.80;22.10;;;;;;;;;;5044669;28;20452;-88
2023/07/19 13:26:39;;;;;;;23.30;21.70;;;;;;;;;;5037373;28;20444;-88
2023/07/19 13:29:06;;;;;;;22.50;20.87;;;;;;;;;;5046777;28;20504;-88
2023/07/19 13:31:33;;;;;;;22.93;21.47;;;;;;;;;;5056495;28;20482;-87
2023/07/19 13:34:00;;;;;;;23.20;21.60;;;;;;;;;;5057542;28;20406;-88
2023/07/19 13:36:31;;;;;;;23.20;21.60;;;;;;;;;;5056936;28;20441;-88
2023/07/19 13:38:58;;;;;;;23.20;21.60;;;;;;;;;;5056745;28;20441;-87
2023/07/19 13:41:25;;;;;;;23.97;22.33;;;;;;;;;;5055391;28;20457;-88
2023/07/19 13:43:53;;;;;;;22.83;21.17;;;;;;;;;;5055787;28;20926;-88
2023/07/19 13:46:20;;;;;;;22.67;21.13;;;;;;;;;;5056205;28;20414;-88
2023/07/19 13:48:48;;;;;;;24.03;22.30;;;;;;;;;;5055998;28;20406;-88
2023/07/19 13:51:15;;;;;;;23.90;22.20;;;;;;;;;;5056422;28;21028;-88
2023/07/19 13:53:43;;;;;;;23.03;21.47;;;;;;;;;;5056535;28;20788;-88
2023/07/19 13:56:11;;;;;;;23.27;21.77;;;;;;;;;;5055992;28;20808;-87
2023/07/19 13:58:39;;;;;;;23.40;21.90;;;;;;;;;;5056165;28;20482;-86
2023/07/19 14:01:06;;;;;;;23.03;21.53;;;;;;;;;;5056646;28;20433;-88
2023/07/19 14:03:33;;;;;;;24.47;22.60;;;;;;;;;;5056604;28;20426;-87
2023/07/19 14:06:00;;;;;;;23.77;21.80;;;;;;;;;;5055815;28;20952;-87
2023/07/19 14:08:27;;;;;;;23.17;21.63;;;;;;;;;;5055634;28;20817;-88
2023/07/19 14:10:56;;;;;;;23.30;21.60;;;;;;;;;;5055968;28;20475;-88
2023/07/19 14:13:23;;;;;;;24.07;22.40;;;;;;;;;;5055954;28;20422;-88
2023/07/19 14:15:50;;;;;;;25.10;22.67;;;;;;;;;;5056434;28;20428;-88
2023/07/19 14:18:17;;;;;;;24.10;22.50;;;;;;;;;;5055894;28;20460;-88
2023/07/19 14:20:44;;;;;;;22.50;21.10;;;;;;;;;;5054500;28;20482;-92